createdAt,value
2018-11-25T00:03:47.745Z,14.70
2018-11-25T00:08:24.930Z,12.73
2018-11-25T00:13:01.291Z,13.17
2018-11-25T00:17:37.712Z,11.77
2018-11-25T00:22:14.109Z,12.47
2018-11-25T00:26:50.581Z,12.37
2018-11-25T00:31:26.952Z,11.73
2018-11-25T00:36:03.361Z,9.90
2018-11-25T00:40:39.751Z,11.03
2018-11-25T00:45:20.699Z,11.43
2018-11-25T00:49:57.105Z,9.33
2018-11-25T00:54:33.509Z,9.43
2018-11-25T00:59:09.878Z,8.47
2018-11-25T01:03:46.277Z,10.37
2018-11-25T01:08:22.689Z,9.47
2018-11-25T01:12:59.869Z,11.97
2018-11-25T01:17:36.267Z,13.97
2018-11-25T01:22:12.865Z,12.03
2018-11-25T01:26:49.244Z,12.50
2018-11-25T01:31:26.477Z,13.63
2018-11-25T01:36:02.834Z,14.00
2018-11-25T01:40:39.243Z,12.93
2018-11-25T01:45:16.979Z,13.80
2018-11-25T01:49:53.385Z,13.17
2018-11-25T01:54:29.781Z,15.10
2018-11-25T01:59:06.340Z,14.53
2018-11-25T02:03:42.725Z,13.20
2018-11-25T02:08:19.186Z,14.20
2018-11-25T02:12:55.548Z,13.13
2018-11-25T02:17:31.956Z,10.97
2018-11-25T02:22:08.328Z,9.13
2018-11-25T02:26:44.727Z,11.37
2018-11-25T02:31:21.094Z,12.40
2018-11-25T02:35:57.491Z,13.60
2018-11-25T02:40:33.848Z,10.77
2018-11-25T02:45:17.381Z,11.27
2018-11-25T02:49:53.743Z,9.43
2018-11-25T02:54:30.185Z,11.03
2018-11-25T02:59:07.151Z,11.67
2018-11-25T03:03:43.539Z,11.80
2018-11-25T03:08:19.912Z,10.57
2018-11-25T03:12:56.312Z,11.60
2018-11-25T03:17:32.685Z,10.33
2018-11-25T03:22:09.303Z,9.13
2018-11-25T03:26:45.668Z,12.77
2018-11-25T03:31:22.074Z,10.73
2018-11-25T03:35:58.468Z,11.60
2018-11-25T03:40:34.852Z,12.00
2018-11-25T03:45:21.581Z,13.00
2018-11-25T03:49:57.960Z,12.40
2018-11-25T03:54:34.337Z,13.40
2018-11-25T03:59:11.523Z,12.13
2018-11-25T04:03:47.892Z,13.27
2018-11-25T04:08:24.268Z,13.73
2018-11-25T04:13:00.640Z,12.67
2018-11-25T04:17:37.032Z,13.33
2018-11-25T04:22:13.442Z,13.63
2018-11-25T04:26:50.617Z,10.47
2018-11-25T04:31:26.987Z,12.07
2018-11-25T04:36:03.483Z,12.67
2018-11-25T04:40:39.866Z,11.37
2018-11-25T04:45:17.349Z,9.87
2018-11-25T04:49:53.700Z,8.73
2018-11-25T04:54:30.188Z,7.60
2018-11-25T04:59:06.558Z,8.60
2018-11-25T05:03:42.953Z,9.33
2018-11-25T05:08:19.314Z,8.53
2018-11-25T05:12:55.725Z,9.83
2018-11-25T05:17:33.169Z,7.80
2018-11-25T05:22:09.570Z,7.83
2018-11-25T05:26:45.938Z,6.73
2018-11-25T05:31:22.338Z,8.07
2018-11-25T05:35:58.793Z,8.30
2018-11-25T05:40:35.178Z,8.47
2018-11-25T05:45:15.614Z,9.00
2018-11-25T05:49:52.241Z,10.77
2018-11-25T05:54:28.601Z,10.60
2018-11-25T05:59:04.993Z,9.53
2018-11-25T06:03:41.353Z,9.13
2018-11-25T06:08:17.758Z,8.93
2018-11-25T06:12:54.254Z,8.80
2018-11-25T06:17:30.685Z,10.47
2018-11-25T06:22:07.602Z,9.90
2018-11-25T06:26:43.998Z,11.23
2018-11-25T06:31:20.360Z,8.30
2018-11-25T06:35:56.745Z,10.97
2018-11-25T06:40:33.104Z,8.40
2018-11-25T06:45:27.336Z,5.17
2018-11-25T06:50:03.717Z,6.27
2018-11-25T06:54:40.128Z,5.17
2018-11-25T06:59:16.485Z,4.47
2018-11-25T07:03:53.050Z,3.47
2018-11-25T07:08:29.404Z,3.63
2018-11-25T07:13:06.221Z,6.27
2018-11-25T07:17:42.579Z,6.83
2018-11-25T07:22:18.994Z,6.63
2018-11-25T07:26:55.342Z,4.73
2018-11-25T07:31:31.761Z,6.80
2018-11-25T07:36:08.716Z,6.03
2018-11-25T07:40:45.100Z,6.90
2018-11-25T07:45:29.721Z,6.27
2018-11-25T07:50:00.149Z,8.30
2018-11-25T07:54:36.535Z,8.57
2018-11-25T07:59:12.921Z,8.20
2018-11-25T08:03:49.292Z,11.20
2018-11-25T08:08:25.692Z,9.10
2018-11-25T08:13:02.064Z,7.20
2018-11-25T08:17:38.801Z,6.60
2018-11-25T08:22:15.165Z,7.87
2018-11-25T08:26:51.580Z,8.67
2018-11-25T08:31:27.937Z,7.60
2018-11-25T08:36:04.329Z,14.00
2018-11-25T08:40:40.912Z,17.53
2018-11-25T08:45:17.592Z,10.27
2018-11-25T08:49:53.963Z,9.37
2018-11-25T08:54:30.368Z,7.23
2018-11-25T08:59:07.101Z,4.23
2018-11-25T09:03:43.508Z,6.03
2018-11-25T09:08:19.886Z,9.23
2018-11-25T09:12:59.985Z,5.47
2018-11-25T09:17:36.336Z,9.40
2018-11-25T09:22:12.745Z,6.43
2018-11-25T09:26:49.121Z,4.73
2018-11-25T09:31:25.521Z,7.70
2018-11-25T09:36:01.901Z,23.93
2018-11-25T09:40:38.329Z,17.63
2018-11-25T09:45:16.142Z,3.87
2018-11-25T09:49:52.577Z,2.20
2018-11-25T09:54:28.958Z,2.27
2018-11-25T09:59:05.349Z,1.60
2018-11-25T10:03:41.714Z,1.57
2018-11-25T10:08:18.123Z,2.47
2018-11-25T10:12:54.516Z,2.62
2018-11-25T10:17:31.136Z,3.17
2018-11-25T10:22:07.606Z,3.08
2018-11-25T10:26:43.997Z,3.08
2018-11-25T10:31:20.352Z,3.60
2018-11-25T10:35:56.732Z,3.65
2018-11-25T10:40:33.120Z,2.87
2018-11-25T10:45:14.611Z,3.17
2018-11-25T10:49:50.968Z,3.95
2018-11-25T10:54:27.352Z,4.55
2018-11-25T10:59:03.724Z,4.78
2018-11-25T11:03:59.052Z,3.98
2018-11-25T11:08:35.436Z,4.28
2018-11-25T11:13:11.828Z,3.58
2018-11-25T11:17:48.184Z,3.92
2018-11-25T11:22:24.560Z,3.57
2018-11-25T11:27:00.922Z,4.03
2018-11-25T11:31:37.305Z,4.15
2018-11-25T11:36:13.664Z,3.22
2018-11-25T11:40:50.056Z,3.00
2018-11-25T11:45:26.408Z,2.50
2018-11-25T11:50:02.797Z,2.42
2018-11-25T11:54:39.170Z,3.50
2018-11-25T11:59:15.581Z,3.72
2018-11-25T12:03:52.743Z,4.53
2018-11-25T12:08:30.008Z,4.15
2018-11-25T12:13:07.206Z,5.08
2018-11-25T12:17:44.386Z,5.50
2018-11-25T12:22:20.746Z,5.35
2018-11-25T12:26:57.172Z,6.80
2018-11-25T12:31:33.540Z,6.15
2018-11-25T12:36:09.949Z,6.00
2018-11-25T12:40:46.324Z,5.47
2018-11-25T12:45:22.714Z,5.87
2018-11-25T12:49:59.072Z,5.83
2018-11-25T12:54:35.460Z,5.95
2018-11-25T12:59:11.850Z,4.90
2018-11-25T13:03:49.050Z,6.10
2018-11-25T13:08:25.410Z,5.15
2018-11-25T13:13:02.060Z,5.80
2018-11-25T13:17:38.496Z,6.03
2018-11-25T13:22:15.669Z,5.83
2018-11-25T13:26:52.047Z,6.67
2018-11-25T13:31:28.436Z,7.30
2018-11-25T13:36:06.383Z,7.53
2018-11-25T13:40:42.781Z,8.47
2018-11-25T13:45:19.232Z,8.80
2018-11-25T13:49:55.604Z,9.17
2018-11-25T13:54:31.977Z,7.73
2018-11-25T13:59:08.526Z,10.53
2018-11-25T14:03:45.387Z,11.27
2018-11-25T14:08:21.773Z,10.13
2018-11-25T14:12:58.928Z,10.40
2018-11-25T14:17:35.312Z,10.33
2018-11-25T14:22:11.804Z,9.37
2018-11-25T14:26:54.198Z,10.40
2018-11-25T14:31:33.142Z,11.37
2018-11-25T14:36:09.578Z,12.17
2018-11-25T14:40:46.117Z,11.17
2018-11-25T14:45:23.012Z,11.30
2018-11-25T14:49:59.377Z,13.20
2018-11-25T14:54:36.659Z,13.37
2018-11-25T14:59:13.105Z,14.37
2018-11-25T15:03:51.366Z,12.90
2018-11-25T15:08:28.856Z,13.53
2018-11-25T15:13:05.560Z,13.53
2018-11-25T15:17:42.848Z,12.37
2018-11-25T15:22:19.311Z,14.73
2018-11-25T15:26:55.669Z,14.00
2018-11-25T15:31:32.058Z,13.20
2018-11-25T15:36:08.429Z,15.60
2018-11-25T15:40:44.882Z,15.40
2018-11-25T15:45:21.260Z,15.20
2018-11-25T15:49:57.661Z,15.03
2018-11-25T15:54:34.041Z,14.67
2018-11-25T15:59:11.588Z,13.63
2018-11-25T16:03:48.078Z,12.97
2018-11-25T16:08:24.541Z,14.00
2018-11-25T16:13:00.999Z,13.97
2018-11-25T16:17:37.561Z,13.33
2018-11-25T16:22:13.972Z,15.47
2018-11-25T16:26:50.365Z,16.00
2018-11-25T16:31:26.848Z,13.20
2018-11-25T16:36:03.265Z,14.87
2018-11-25T16:40:39.641Z,13.40
2018-11-25T16:45:17.274Z,15.87
2018-11-25T16:49:53.648Z,16.43
2018-11-25T16:54:30.064Z,14.47
2018-11-25T16:59:07.246Z,15.17
2018-11-25T17:03:43.659Z,15.20
2018-11-25T17:08:31.798Z,13.83
2018-11-25T17:13:08.927Z,16.20
2018-11-25T17:17:45.321Z,14.90
2018-11-25T17:22:21.727Z,15.37
2018-11-25T17:26:58.096Z,14.77
2018-11-25T17:31:34.510Z,15.27
2018-11-25T17:36:10.884Z,15.90
2018-11-25T17:40:47.513Z,13.90
2018-11-25T17:45:23.893Z,17.77
2018-11-25T17:50:00.600Z,16.43
2018-11-25T17:54:36.969Z,19.60
2018-11-25T17:59:13.361Z,16.63
2018-11-25T18:03:49.791Z,15.47
2018-11-25T18:08:26.532Z,17.47
2018-11-25T18:13:02.911Z,15.77
2018-11-25T18:17:39.301Z,16.70
2018-11-25T18:22:22.774Z,16.00
2018-11-25T18:26:59.173Z,16.80
2018-11-25T18:31:35.545Z,15.60
2018-11-25T18:36:13.995Z,15.07
2018-11-25T18:40:50.463Z,16.13
2018-11-25T18:45:26.860Z,14.27
2018-11-25T18:50:03.241Z,14.97
2018-11-25T18:54:49.682Z,13.87
2018-11-25T18:59:27.457Z,13.07
2018-11-25T19:04:03.345Z,15.33
2018-11-25T19:08:39.721Z,12.87
2018-11-25T19:13:16.133Z,13.47
2018-11-25T19:17:52.529Z,13.37
2018-11-25T19:22:28.986Z,13.07
2018-11-25T19:27:05.366Z,11.63
2018-11-25T19:31:41.848Z,11.53
2018-11-25T19:36:18.212Z,11.70
2018-11-25T19:40:54.657Z,12.73
2018-11-25T19:45:31.033Z,12.03
2018-11-25T19:50:19.933Z,12.73
2018-11-25T19:54:56.309Z,14.00
2018-11-25T19:59:32.714Z,12.73
2018-11-25T20:04:09.125Z,12.27
2018-11-25T20:08:45.522Z,12.93
2018-11-25T20:13:21.904Z,13.53
2018-11-25T20:17:58.312Z,14.07
2018-11-25T20:22:34.696Z,14.47
2018-11-25T20:27:35.419Z,13.83
2018-11-25T20:32:29.116Z,12.83
2018-11-25T20:37:05.511Z,13.77
2018-11-25T20:41:41.885Z,11.13
2018-11-25T20:46:35.377Z,11.27
2018-11-25T20:51:11.743Z,12.60
2018-11-25T20:55:48.135Z,13.10
2018-11-25T21:00:26.093Z,13.73
2018-11-25T21:05:02.481Z,12.53
2018-11-25T21:09:38.860Z,10.17
2018-11-25T21:14:15.270Z,10.07
2018-11-25T21:18:51.649Z,14.03
2018-11-25T21:23:28.065Z,11.67
2018-11-25T21:28:04.484Z,13.77
2018-11-25T21:32:41.689Z,12.70
2018-11-25T21:37:18.073Z,13.57
2018-11-25T21:41:54.460Z,12.27
2018-11-25T21:46:30.882Z,13.00
2018-11-25T21:51:07.606Z,12.57
2018-11-25T21:55:43.980Z,12.20
2018-11-25T22:00:22.132Z,11.47
2018-11-25T22:05:00.355Z,12.10
2018-11-25T22:09:38.440Z,13.70
2018-11-25T22:14:14.744Z,15.47
2018-11-25T22:18:51.156Z,14.03
2018-11-25T22:23:27.547Z,11.90
2018-11-25T22:28:03.933Z,12.27
2018-11-25T22:32:40.541Z,14.00
2018-11-25T22:37:16.992Z,11.83
2018-11-25T22:41:53.361Z,12.47
2018-11-25T22:46:29.774Z,12.83
2018-11-25T22:51:06.773Z,13.10
2018-11-25T22:55:43.249Z,12.87
2018-11-25T23:00:24.727Z,11.60
2018-11-25T23:05:36.531Z,14.23
2018-11-25T23:10:12.953Z,11.90
2018-11-25T23:14:49.345Z,12.30
2018-11-25T23:19:25.708Z,13.30
2018-11-25T23:24:02.129Z,13.45
2018-11-25T23:28:38.532Z,10.30
2018-11-25T23:33:14.940Z,10.37
2018-11-25T23:37:51.371Z,10.20
2018-11-25T23:42:27.773Z,9.67
2018-11-25T23:47:04.148Z,11.67
2018-11-25T23:51:40.567Z,11.63
2018-11-25T23:56:16.932Z,11.70
